createdAt,value
2022-07-26T00:00:58.901Z,70.68
2022-07-26T00:02:03.230Z,70.77
2022-07-26T00:03:08.590Z,70.55
2022-07-26T00:04:12.843Z,70.16
2022-07-26T00:05:18.220Z,69.75
2022-07-26T00:06:23.808Z,70.02
2022-07-26T00:07:28.421Z,70.22
2022-07-26T00:08:33.913Z,70.55
2022-07-26T00:09:39.485Z,70.67
2022-07-26T00:10:49.024Z,70.71
2022-07-26T00:11:55.638Z,70.26
2022-07-26T00:13:00.083Z,70.28
2022-07-26T00:14:07.261Z,70.67
2022-07-26T00:15:15.126Z,70.35
2022-07-26T00:16:19.766Z,70.93
2022-07-26T00:17:25.092Z,70.91
2022-07-26T00:18:28.748Z,70.58
2022-07-26T00:19:34.102Z,71.21
2022-07-26T00:20:38.998Z,70.89
2022-07-26T00:21:42.604Z,71.03
2022-07-26T00:22:45.413Z,71.16
2022-07-26T00:23:51.351Z,71.01
2022-07-26T00:24:57.749Z,71.14
2022-07-26T00:26:04.987Z,71.53
2022-07-26T00:27:10.425Z,72.19
2022-07-26T00:28:14.430Z,72.63
2022-07-26T00:29:18.627Z,73.13
2022-07-26T00:30:25.479Z,73.21
2022-07-26T00:31:29.422Z,73.04
2022-07-26T00:32:36.275Z,73.01
2022-07-26T00:33:40.795Z,72.96
2022-07-26T00:34:44.608Z,72.99
2022-07-26T00:35:48.803Z,73.18
2022-07-26T00:36:52.009Z,72.87
2022-07-26T00:37:58.738Z,72.65
2022-07-26T00:39:03.164Z,72.93
2022-07-26T00:40:09.049Z,72.48
2022-07-26T00:41:12.958Z,72.66
2022-07-26T00:42:18.021Z,72.93
2022-07-26T00:43:21.641Z,72.92
2022-07-26T00:44:25.617Z,72.72
2022-07-26T00:45:29.239Z,72.82
2022-07-26T00:46:36.899Z,73.35
2022-07-26T00:47:41.459Z,74.00
2022-07-26T00:48:45.971Z,73.81
2022-07-26T00:49:50.881Z,73.29
2022-07-26T00:50:59.250Z,73.42
2022-07-26T00:52:03.755Z,73.34
2022-07-26T00:53:10.683Z,73.11
2022-07-26T00:54:15.279Z,73.34
2022-07-26T00:55:19.654Z,72.91
2022-07-26T00:56:23.351Z,72.82
2022-07-26T00:57:28.016Z,72.82
2022-07-26T00:58:33.581Z,72.85
2022-07-26T00:59:37.399Z,72.89
2022-07-26T01:00:43.046Z,73.13
2022-07-26T01:01:48.016Z,73.16
2022-07-26T01:27:12.514Z,75.60
2022-07-26T01:28:19.499Z,75.75
2022-07-26T01:29:22.190Z,75.78
2022-07-26T01:30:29.276Z,75.68
2022-07-26T01:31:32.806Z,75.91
2022-07-26T01:32:38.772Z,76.12
2022-07-26T01:33:43.446Z,76.40
2022-07-26T01:34:47.788Z,76.56
2022-07-26T01:35:52.424Z,76.02
2022-07-26T01:38:09.473Z,76.04
2022-07-26T01:39:12.483Z,76.65
2022-07-26T01:40:16.273Z,76.88
2022-07-26T01:41:37.756Z,77.15
2022-07-26T01:42:29.612Z,76.67
2022-07-26T01:43:32.650Z,76.26
2022-07-26T01:44:35.697Z,76.69
2022-07-26T01:45:39.166Z,77.17
2022-07-26T01:46:42.945Z,77.58
2022-07-26T01:47:48.234Z,77.97
2022-07-26T01:48:52.175Z,78.33
2022-07-26T01:49:55.342Z,78.77
2022-07-26T01:51:04.229Z,78.84
2022-07-26T01:52:07.715Z,79.00
2022-07-26T01:53:12.683Z,79.10
2022-07-26T01:54:16.045Z,79.23
2022-07-26T01:55:21.568Z,79.58
2022-07-26T01:56:26.853Z,79.37
2022-07-26T01:57:32.760Z,80.20
2022-07-26T01:58:36.143Z,79.89
2022-07-26T01:59:39.660Z,79.85
2022-07-26T02:00:44.695Z,80.33
2022-07-26T02:01:51.229Z,81.33
2022-07-26T02:02:55.096Z,81.64
2022-07-26T02:04:02.337Z,82.15
2022-07-26T02:05:06.795Z,81.92
2022-07-26T02:06:11.099Z,81.59
2022-07-26T02:07:15.397Z,81.87
2022-07-26T02:08:18.875Z,81.32
2022-07-26T02:09:27.875Z,81.35
2022-07-26T02:10:49.077Z,81.45
2022-07-26T02:11:54.052Z,81.69
2022-07-26T02:12:57.623Z,81.91
2022-07-26T02:14:01.278Z,82.18
2022-07-26T02:15:09.757Z,81.67
2022-07-26T02:16:19.354Z,81.85
2022-07-26T02:17:24.672Z,82.03
2022-07-26T02:18:30.807Z,82.29
2022-07-26T02:19:36.198Z,82.61
2022-07-26T02:20:41.996Z,83.08
2022-07-26T02:21:46.580Z,83.20
2022-07-26T02:22:50.318Z,83.57
2022-07-26T02:23:54.914Z,82.95
2022-07-26T02:25:04.773Z,82.99
2022-07-26T02:26:05.931Z,82.79
2022-07-26T02:27:10.131Z,82.49
2022-07-26T02:28:13.951Z,82.33
2022-07-26T02:29:17.982Z,82.99
2022-07-26T02:30:26.184Z,83.23
2022-07-26T02:31:32.386Z,84.00
2022-07-26T02:32:39.410Z,83.89
2022-07-26T02:33:43.228Z,83.56
2022-07-26T02:34:55.800Z,83.79
2022-07-26T02:35:59.173Z,82.66
2022-07-26T02:37:06.360Z,82.34
2022-07-26T02:38:12.614Z,82.34
2022-07-26T02:39:16.890Z,82.13
2022-07-26T02:40:24.723Z,81.88
2022-07-26T02:41:31.457Z,82.32
2022-07-26T02:42:35.565Z,81.73
2022-07-26T02:43:39.262Z,82.06
2022-07-26T02:44:41.881Z,81.55
2022-07-26T02:45:44.568Z,81.79
2022-07-26T02:46:51.497Z,82.19
2022-07-26T02:47:56.126Z,81.56
2022-07-26T02:49:05.380Z,81.48
2022-07-26T02:50:12.118Z,81.45
2022-07-26T02:51:15.635Z,81.09
2022-07-26T02:52:21.121Z,81.63
2022-07-26T02:53:24.802Z,81.73
2022-07-26T02:54:34.629Z,81.39
2022-07-26T02:55:39.702Z,81.45
2022-07-26T02:56:45.340Z,81.17
2022-07-26T02:57:49.112Z,80.69
2022-07-26T02:58:54.500Z,80.60
2022-07-26T02:59:58.950Z,80.24
2022-07-26T03:01:03.644Z,80.13
2022-07-26T03:02:09.254Z,79.30
2022-07-26T03:03:14.521Z,78.92
2022-07-26T03:04:18.581Z,79.33
2022-07-26T03:05:22.843Z,78.50
2022-07-26T03:06:27.750Z,77.26
2022-07-26T03:08:42.273Z,75.19
2022-07-26T03:09:45.713Z,75.35
2022-07-26T03:10:48.447Z,76.01
2022-07-26T03:11:52.376Z,75.93
2022-07-26T03:12:59.491Z,75.89
2022-07-26T03:14:02.734Z,76.22
2022-07-26T03:15:09.917Z,75.91
2022-07-26T03:16:17.962Z,75.87
2022-07-26T03:17:19.499Z,76.37
2022-07-26T03:18:29.734Z,75.47
2022-07-26T03:19:34.278Z,75.53
2022-07-26T03:20:38.067Z,75.79
2022-07-26T03:21:40.533Z,76.30
2022-07-26T03:22:47.744Z,76.47
2022-07-26T03:23:51.295Z,77.22
2022-07-26T03:24:54.624Z,77.17
2022-07-26T03:25:59.193Z,76.89
2022-07-26T03:27:06.506Z,75.56
2022-07-26T03:28:10.435Z,74.80
2022-07-26T03:29:14.079Z,75.39
2022-07-26T03:30:24.531Z,76.34
2022-07-26T03:31:30.984Z,76.73
2022-07-26T03:32:35.977Z,76.30
2022-07-26T03:33:41.640Z,76.16
2022-07-26T03:34:49.150Z,76.53
2022-07-26T03:36:00.333Z,77.14
2022-07-26T03:37:08.190Z,77.43
2022-07-26T03:38:12.716Z,78.12
2022-07-26T03:39:16.115Z,78.40
2022-07-26T03:40:21.392Z,78.29
2022-07-26T03:41:25.289Z,78.28
2022-07-26T03:42:29.772Z,78.56
2022-07-26T03:43:39.248Z,78.53
2022-07-26T03:44:43.046Z,78.26
2022-07-26T03:45:46.535Z,78.37
2022-07-26T03:46:50.339Z,78.01
2022-07-26T03:47:53.732Z,78.91
2022-07-26T03:48:57.241Z,79.76
2022-07-26T03:50:01.266Z,79.64
2022-07-26T03:52:16.869Z,78.34
2022-07-26T03:53:20.449Z,78.12
2022-07-26T03:54:27.946Z,77.94
2022-07-26T03:55:51.123Z,77.91
2022-07-26T03:56:55.198Z,77.64
2022-07-26T03:57:58.737Z,77.54
2022-07-26T03:59:10.562Z,77.29
2022-07-26T04:00:18.489Z,77.52
2022-07-26T04:01:23.772Z,77.10
2022-07-26T04:02:27.263Z,77.39
2022-07-26T04:03:31.268Z,76.61
2022-07-26T04:04:35.506Z,77.13
2022-07-26T04:05:39.318Z,77.68
2022-07-26T04:06:47.174Z,77.13
2022-07-26T04:07:53.084Z,76.90
2022-07-26T04:08:56.816Z,77.10
2022-07-26T04:10:01.578Z,77.97
2022-07-26T04:11:04.867Z,77.66
2022-07-26T04:12:09.568Z,77.97
2022-07-26T04:13:13.081Z,78.22
2022-07-26T04:14:18.500Z,78.86
2022-07-26T04:15:25.411Z,78.38
2022-07-26T04:16:40.104Z,78.66
2022-07-26T04:17:44.256Z,79.36
2022-07-26T04:18:46.883Z,78.83
2022-07-26T04:19:51.553Z,78.59
2022-07-26T04:20:54.292Z,78.38
2022-07-26T04:21:57.689Z,77.59
2022-07-26T04:23:01.551Z,77.29
2022-07-26T04:24:06.732Z,77.25
2022-07-26T04:25:12.337Z,77.14
2022-07-26T04:26:15.787Z,76.95
2022-07-26T04:27:19.289Z,76.08
2022-07-26T04:28:24.050Z,75.64
2022-07-26T04:29:30.743Z,72.97
2022-07-26T04:30:35.789Z,65.03
2022-07-26T04:31:42.763Z,58.01
2022-07-26T04:32:49.711Z,54.50
2022-07-26T04:33:53.204Z,53.79
2022-07-26T04:34:59.863Z,53.27
2022-07-26T04:36:04.562Z,50.81
2022-07-26T04:37:11.265Z,48.14
2022-07-26T04:38:15.369Z,44.20
2022-07-26T04:39:22.300Z,42.40
2022-07-26T04:40:28.546Z,40.04
2022-07-26T04:41:39.361Z,39.65
2022-07-26T04:42:43.005Z,38.37
2022-07-26T04:43:50.049Z,37.32
2022-07-26T04:44:53.710Z,36.28
2022-07-26T04:47:13.870Z,35.80
2022-07-26T04:48:18.046Z,35.92
2022-07-26T04:49:25.118Z,35.17
2022-07-26T04:50:35.180Z,35.22
2022-07-26T04:51:40.843Z,34.90
2022-07-26T04:52:44.278Z,34.00
2022-07-26T04:53:47.744Z,33.72
2022-07-26T04:54:51.107Z,32.97
2022-07-26T04:55:54.793Z,32.72
2022-07-26T04:57:01.192Z,32.83
2022-07-26T04:58:05.842Z,32.40
2022-07-26T04:59:09.660Z,32.25
2022-07-26T05:00:21.702Z,31.53
2022-07-26T05:01:24.691Z,31.15
2022-07-26T05:02:28.431Z,31.07
2022-07-26T05:03:31.966Z,31.29
2022-07-26T05:04:37.656Z,31.46
2022-07-26T05:05:41.196Z,31.28
2022-07-26T05:06:44.743Z,31.34
2022-07-26T05:07:54.246Z,32.49
2022-07-26T05:08:58.575Z,32.14
2022-07-26T05:10:02.079Z,32.63
2022-07-26T05:11:04.979Z,32.28
2022-07-26T05:12:10.484Z,31.91
2022-07-26T05:13:23.154Z,30.76
2022-07-26T05:14:24.944Z,30.93
2022-07-26T05:15:35.018Z,31.44
2022-07-26T05:16:35.218Z,30.81
2022-07-26T05:17:41.453Z,30.47
2022-07-26T05:18:45.729Z,30.78
2022-07-26T05:19:54.271Z,31.01
2022-07-26T05:21:01.280Z,30.81
2022-07-26T05:22:04.934Z,30.77
2022-07-26T05:23:08.108Z,31.94
2022-07-26T05:24:12.132Z,31.94
2022-07-26T05:25:14.926Z,30.70
2022-07-26T05:26:19.513Z,29.82
2022-07-26T05:27:24.557Z,29.94
2022-07-26T05:28:28.980Z,29.76
2022-07-26T05:29:33.080Z,29.89
2022-07-26T05:30:40.599Z,29.97
2022-07-26T05:31:49.149Z,28.79
2022-07-26T05:32:53.909Z,27.74
2022-07-26T05:33:58.846Z,27.55
2022-07-26T05:35:03.397Z,27.69
2022-07-26T05:36:07.255Z,27.39
2022-07-26T05:37:10.690Z,27.93
2022-07-26T05:38:14.071Z,28.73
2022-07-26T05:39:17.839Z,28.81
2022-07-26T05:40:21.647Z,28.84
2022-07-26T05:41:26.204Z,28.70
2022-07-26T05:42:31.064Z,29.04
2022-07-26T05:43:41.599Z,28.15
2022-07-26T05:44:44.500Z,27.07
2022-07-26T05:45:49.282Z,27.43
2022-07-26T05:46:53.091Z,27.75
2022-07-26T05:48:01.099Z,27.93
2022-07-26T05:49:07.284Z,28.50
2022-07-26T05:50:11.323Z,27.94
2022-07-26T05:51:14.983Z,28.14
2022-07-26T05:52:18.597Z,28.04
2022-07-26T05:53:22.615Z,27.46
2022-07-26T05:54:26.039Z,27.67
2022-07-26T05:55:29.099Z,28.05
2022-07-26T05:56:36.194Z,27.13
2022-07-26T05:57:42.797Z,27.00
2022-07-26T05:58:50.050Z,26.50
2022-07-26T05:59:53.624Z,26.74
2022-07-26T06:00:58.295Z,26.37
2022-07-26T06:02:02.010Z,26.70
2022-07-26T06:04:19.633Z,26.69
2022-07-26T06:05:24.320Z,27.05
2022-07-26T06:06:28.770Z,27.17
2022-07-26T06:07:31.401Z,26.72
2022-07-26T06:08:36.223Z,25.88
2022-07-26T06:09:40.672Z,25.52
2022-07-26T06:10:46.780Z,25.18
2022-07-26T06:11:50.292Z,25.41
2022-07-26T06:12:53.626Z,26.49
2022-07-26T06:14:00.264Z,27.55
2022-07-26T06:15:15.709Z,30.81
2022-07-26T06:16:12.883Z,34.49
2022-07-26T06:17:16.605Z,34.92
2022-07-26T06:18:21.140Z,34.93
2022-07-26T06:19:24.785Z,32.06
2022-07-26T06:20:35.029Z,29.87
2022-07-26T06:21:38.964Z,27.41
2022-07-26T06:22:41.771Z,29.44
2022-07-26T06:23:45.765Z,33.03
2022-07-26T06:24:52.443Z,35.85
2022-07-26T06:25:56.956Z,34.17
2022-07-26T06:28:13.154Z,39.97
2022-07-26T06:29:16.720Z,42.00
2022-07-26T06:30:21.311Z,37.97
2022-07-26T06:31:26.286Z,33.32
2022-07-26T06:32:30.529Z,35.86
2022-07-26T06:33:34.685Z,36.41
2022-07-26T06:34:40.057Z,32.85
2022-07-26T06:35:43.588Z,31.06
2022-07-26T06:36:47.473Z,30.21
2022-07-26T06:37:52.719Z,31.43
2022-07-26T06:38:56.353Z,34.89
2022-07-26T06:39:59.864Z,37.59
2022-07-26T06:41:08.224Z,36.69
2022-07-26T06:42:11.706Z,34.58
2022-07-26T06:43:17.998Z,34.51
2022-07-26T06:44:20.769Z,32.11
2022-07-26T06:45:24.437Z,33.32
2022-07-26T06:46:29.075Z,35.57
2022-07-26T06:47:33.058Z,32.67
2022-07-26T06:48:36.145Z,29.45
2022-07-26T06:49:41.049Z,29.90
2022-07-26T06:50:45.874Z,29.07
2022-07-26T06:51:49.374Z,32.93
2022-07-26T06:52:53.052Z,36.23
2022-07-26T06:54:00.981Z,33.54
2022-07-26T06:55:06.619Z,29.79
2022-07-26T06:56:09.553Z,28.42
2022-07-26T06:57:13.595Z,28.32
2022-07-26T06:58:17.812Z,31.01
2022-07-26T06:59:21.431Z,34.32
2022-07-26T07:00:25.174Z,36.21
2022-07-26T07:01:58.611Z,36.51
2022-07-26T07:02:37.543Z,38.12
2022-07-26T07:03:40.604Z,39.35
2022-07-26T07:04:46.497Z,38.39
2022-07-26T07:05:52.382Z,39.86
2022-07-26T07:06:58.116Z,36.46
2022-07-26T07:08:07.571Z,31.93
2022-07-26T07:09:11.255Z,31.88
2022-07-26T07:10:17.577Z,32.16
2022-07-26T07:11:24.752Z,31.34
2022-07-26T07:12:30.962Z,32.83
2022-07-26T07:13:33.741Z,35.25
2022-07-26T07:14:37.920Z,32.11
2022-07-26T07:15:40.885Z,29.39
2022-07-26T07:16:52.942Z,26.89
2022-07-26T07:17:55.601Z,26.43
2022-07-26T07:18:58.527Z,26.86
2022-07-26T07:20:05.135Z,25.87
2022-07-26T07:21:08.054Z,25.05
2022-07-26T07:22:15.624Z,24.76
2022-07-26T07:23:22.981Z,24.39
2022-07-26T07:24:25.640Z,24.62
2022-07-26T07:25:30.788Z,24.77
2022-07-26T07:26:36.816Z,24.81
2022-07-26T07:27:40.500Z,28.50
2022-07-26T07:28:44.037Z,31.47
2022-07-26T07:29:49.598Z,33.44
2022-07-26T07:30:54.572Z,35.60
2022-07-26T07:31:58.309Z,37.24
2022-07-26T07:33:03.547Z,34.90
2022-07-26T07:34:08.605Z,36.44
2022-07-26T07:35:12.935Z,38.70
2022-07-26T07:36:23.949Z,36.75
2022-07-26T07:37:26.876Z,32.03
2022-07-26T07:38:33.778Z,30.58
2022-07-26T07:39:39.424Z,31.41
2022-07-26T07:40:44.908Z,29.58
2022-07-26T07:41:49.636Z,30.83
2022-07-26T07:42:58.360Z,30.26
2022-07-26T07:44:02.229Z,29.48
2022-07-26T07:45:09.110Z,28.07
2022-07-26T07:46:15.146Z,27.92
2022-07-26T07:47:19.208Z,27.87
2022-07-26T07:48:24.628Z,27.32
2022-07-26T07:49:29.308Z,27.05
2022-07-26T07:50:35.241Z,29.07
2022-07-26T07:51:40.741Z,29.22
2022-07-26T07:52:46.479Z,29.37
2022-07-26T07:55:36.590Z,31.36
2022-07-26T07:56:09.128Z,33.69
2022-07-26T07:57:13.661Z,34.71
2022-07-26T07:58:18.981Z,31.85
2022-07-26T07:59:26.878Z,30.22
2022-07-26T08:00:32.101Z,29.40
2022-07-26T08:01:39.526Z,28.03
2022-07-26T08:02:48.523Z,29.34
2022-07-26T08:03:54.914Z,30.09
2022-07-26T08:05:03.089Z,30.95
2022-07-26T08:06:05.786Z,33.18
2022-07-26T08:07:09.607Z,33.91
2022-07-26T08:08:13.357Z,33.67
2022-07-26T08:09:18.227Z,34.43
2022-07-26T08:10:21.903Z,36.00
2022-07-26T08:11:25.229Z,36.94
2022-07-26T08:12:29.752Z,37.66
2022-07-26T08:13:34.087Z,36.69
2022-07-26T08:14:37.697Z,35.38
2022-07-26T08:15:49.986Z,35.11
2022-07-26T08:16:55.188Z,34.77
2022-07-26T08:17:57.723Z,34.16
2022-07-26T08:19:03.172Z,33.23
2022-07-26T08:20:08.925Z,33.41
2022-07-26T08:21:15.433Z,33.40
2022-07-26T08:22:19.321Z,31.96
2022-07-26T08:23:32.006Z,31.67
2022-07-26T08:24:35.769Z,31.69
2022-07-26T08:25:50.076Z,32.33
2022-07-26T08:26:45.388Z,33.85
2022-07-26T08:28:03.291Z,34.18
2022-07-26T08:28:58.376Z,34.00
2022-07-26T08:29:59.041Z,35.02
2022-07-26T08:31:03.233Z,35.20
2022-07-26T08:32:07.612Z,35.37
2022-07-26T08:33:11.742Z,35.30
2022-07-26T08:34:17.070Z,34.13
2022-07-26T08:35:22.782Z,33.79
2022-07-26T08:36:32.219Z,33.21
2022-07-26T08:37:32.504Z,34.00
2022-07-26T08:38:38.494Z,35.10
2022-07-26T08:40:00.037Z,35.68
2022-07-26T08:41:03.889Z,36.13
2022-07-26T08:42:22.486Z,37.57
2022-07-26T08:43:25.279Z,38.69
2022-07-26T08:44:29.173Z,39.85
2022-07-26T08:45:32.950Z,40.20
2022-07-26T08:46:37.694Z,39.91
2022-07-26T08:47:55.388Z,38.36
2022-07-26T08:48:46.163Z,36.43
2022-07-26T08:49:51.112Z,34.99
2022-07-26T08:50:57.701Z,34.01
2022-07-26T08:52:02.053Z,33.58
2022-07-26T08:53:09.009Z,33.92
2022-07-26T08:54:16.137Z,34.20
2022-07-26T08:55:21.188Z,33.91
2022-07-26T08:56:29.067Z,33.52
2022-07-26T08:57:33.506Z,33.06
2022-07-26T08:58:37.428Z,32.55
2022-07-26T08:59:40.830Z,32.13
2022-07-26T09:00:47.581Z,33.02
2022-07-26T09:01:55.500Z,33.67
2022-07-26T09:03:03.379Z,33.57
2022-07-26T09:04:31.854Z,34.55
2022-07-26T09:05:32.615Z,34.43
2022-07-26T09:06:37.116Z,36.67
2022-07-26T09:07:44.345Z,36.69
2022-07-26T09:08:50.488Z,34.94
2022-07-26T09:10:01.018Z,34.63
2022-07-26T09:12:29.747Z,34.25
2022-07-26T09:13:53.090Z,34.23
2022-07-26T09:14:58.848Z,34.54
2022-07-26T09:16:12.567Z,34.59
2022-07-26T09:17:22.689Z,34.12
2022-07-26T09:18:28.546Z,32.90
2022-07-26T09:19:30.966Z,32.60
2022-07-26T09:20:35.189Z,33.04
2022-07-26T09:21:39.639Z,32.57
2022-07-26T09:23:01.454Z,32.90
2022-07-26T09:24:08.824Z,33.54
2022-07-26T09:25:25.169Z,32.85
2022-07-26T09:26:29.025Z,32.72
2022-07-26T09:27:36.363Z,33.49
2022-07-26T09:28:45.036Z,32.89
2022-07-26T09:29:53.376Z,34.00
2022-07-26T09:31:04.243Z,35.01
2022-07-26T09:32:17.709Z,34.67
2022-07-26T09:33:21.804Z,33.79
2022-07-26T09:34:27.784Z,32.13
2022-07-26T09:35:52.315Z,31.96
2022-07-26T09:36:54.414Z,32.12
2022-07-26T09:37:59.327Z,32.69
2022-07-26T09:39:04.832Z,33.92
2022-07-26T09:40:14.733Z,35.35
2022-07-26T09:41:25.040Z,36.83
2022-07-26T09:42:30.220Z,37.90
2022-07-26T09:43:39.691Z,37.58
2022-07-26T09:44:47.856Z,36.26
2022-07-26T09:45:53.846Z,35.35
2022-07-26T09:47:01.605Z,34.05
2022-07-26T09:48:06.071Z,33.87
2022-07-26T09:49:21.728Z,33.71
2022-07-26T09:50:32.679Z,34.19
2022-07-26T09:51:49.957Z,33.69
2022-07-26T09:53:06.461Z,32.67
2022-07-26T09:54:14.161Z,32.41
2022-07-26T09:55:19.154Z,32.50
2022-07-26T09:56:22.045Z,32.32
2022-07-26T09:57:25.292Z,32.54
2022-07-26T09:58:31.785Z,33.95
2022-07-26T09:59:43.084Z,34.06
2022-07-26T10:00:50.040Z,34.85
2022-07-26T10:01:54.167Z,35.73
2022-07-26T10:03:00.444Z,36.85
2022-07-26T10:05:18.935Z,38.32
2022-07-26T10:06:28.555Z,37.64
2022-07-26T10:07:29.754Z,35.76
2022-07-26T10:08:33.518Z,34.75
2022-07-26T10:09:53.258Z,34.99
2022-07-26T10:11:09.895Z,33.98
2022-07-26T10:12:16.931Z,34.06
2022-07-26T10:13:23.684Z,33.77
2022-07-26T10:14:46.683Z,33.59
2022-07-26T10:15:51.638Z,33.26
2022-07-26T10:16:56.686Z,33.38
2022-07-26T10:17:59.829Z,33.79
2022-07-26T10:19:06.983Z,33.31
2022-07-26T10:20:37.107Z,33.81
2022-07-26T10:21:50.641Z,33.83
2022-07-26T10:22:55.519Z,33.42
2022-07-26T10:24:04.158Z,33.47
2022-07-26T10:25:20.695Z,33.79
2022-07-26T10:26:36.642Z,33.87
2022-07-26T10:27:52.369Z,34.03
2022-07-26T10:28:55.815Z,32.93
2022-07-26T10:30:19.053Z,32.31
2022-07-26T10:31:30.654Z,32.22
2022-07-26T10:32:36.090Z,31.92
2022-07-26T10:33:44.904Z,31.69
2022-07-26T10:34:48.325Z,33.03
2022-07-26T10:35:51.276Z,34.76
2022-07-26T10:37:08.885Z,36.05
2022-07-26T10:38:26.521Z,35.68
2022-07-26T10:39:32.220Z,36.60
2022-07-26T10:40:38.572Z,37.39
2022-07-26T10:41:46.265Z,37.39
2022-07-26T10:42:51.344Z,36.52
2022-07-26T10:44:09.687Z,35.42
2022-07-26T10:45:22.554Z,34.92
2022-07-26T10:46:30.588Z,34.49
2022-07-26T10:47:35.469Z,35.45
2022-07-26T10:49:04.311Z,35.34
2022-07-26T10:50:12.909Z,35.37
2022-07-26T10:52:36.649Z,34.09
2022-07-26T10:53:41.620Z,33.88
2022-07-26T10:55:08.294Z,34.06
2022-07-26T10:56:16.289Z,34.30
2022-07-26T10:57:21.073Z,33.23
2022-07-26T10:58:27.072Z,33.73
2022-07-26T10:59:54.682Z,33.22
2022-07-26T11:00:45.850Z,33.52
2022-07-26T11:01:50.017Z,33.41
2022-07-26T11:02:58.247Z,33.74
2022-07-26T11:04:01.764Z,32.31
2022-07-26T11:05:16.669Z,31.94
2022-07-26T11:06:22.196Z,32.19
2022-07-26T11:07:26.264Z,32.08
2022-07-26T11:08:32.548Z,32.32
2022-07-26T11:09:37.157Z,32.63
2022-07-26T11:10:47.648Z,33.06
2022-07-26T11:11:51.951Z,33.44
2022-07-26T11:13:09.604Z,33.20
2022-07-26T11:14:16.879Z,32.95
2022-07-26T11:15:26.021Z,33.12
2022-07-26T11:16:43.239Z,33.00
2022-07-26T11:17:47.124Z,32.90
2022-07-26T11:18:51.511Z,32.83
2022-07-26T11:19:57.428Z,32.40
2022-07-26T11:21:13.826Z,33.39
2022-07-26T11:22:21.381Z,33.82
2022-07-26T11:23:30.936Z,33.82
2022-07-26T11:24:39.530Z,33.91
2022-07-26T11:25:43.567Z,33.83
2022-07-26T11:26:47.567Z,33.16
2022-07-26T11:28:07.364Z,33.92
2022-07-26T11:29:17.512Z,33.11
2022-07-26T11:30:19.553Z,32.77
2022-07-26T11:32:49.665Z,33.30
2022-07-26T11:33:54.357Z,32.51
2022-07-26T11:34:59.559Z,32.74
2022-07-26T11:36:12.204Z,32.82
2022-07-26T11:37:16.175Z,32.72
2022-07-26T11:38:25.102Z,32.44
2022-07-26T11:39:34.660Z,32.34
2022-07-26T11:40:47.613Z,31.92
2022-07-26T11:43:08.148Z,31.64
2022-07-26T11:44:21.321Z,31.69
2022-07-26T11:45:31.487Z,31.75
2022-07-26T11:46:45.027Z,32.34
2022-07-26T11:47:48.916Z,33.00
2022-07-26T11:48:57.066Z,33.96
2022-07-26T11:50:16.821Z,34.04
2022-07-26T11:51:27.876Z,34.29
2022-07-26T11:52:40.418Z,33.17
2022-07-26T11:53:46.994Z,32.82
2022-07-26T11:54:54.144Z,33.55
2022-07-26T11:56:04.938Z,33.91
2022-07-26T11:57:17.278Z,33.25
2022-07-26T11:58:24.187Z,33.57
2022-07-26T11:59:31.586Z,33.06
2022-07-26T12:00:35.755Z,32.93
2022-07-26T12:01:40.631Z,32.76
2022-07-26T12:02:51.423Z,33.10
2022-07-26T12:03:55.643Z,33.59
2022-07-26T12:05:21.470Z,33.05
2022-07-26T12:06:30.345Z,34.17
2022-07-26T12:07:34.084Z,34.45
2022-07-26T12:08:43.136Z,34.01
2022-07-26T12:09:51.122Z,34.32
2022-07-26T12:11:01.656Z,34.16
2022-07-26T12:13:39.722Z,33.89
2022-07-26T12:14:41.598Z,33.01
2022-07-26T12:15:51.737Z,33.04
2022-07-26T12:16:58.218Z,33.33
2022-07-26T12:18:02.436Z,33.38
2022-07-26T12:19:08.067Z,32.96
2022-07-26T12:20:19.484Z,33.01
2022-07-26T12:21:42.014Z,33.67
2022-07-26T12:22:57.751Z,32.56
2022-07-26T12:24:01.542Z,33.06
2022-07-26T12:25:06.530Z,34.19
2022-07-26T12:26:29.042Z,34.51
2022-07-26T12:27:34.455Z,34.49
2022-07-26T12:28:42.995Z,35.12
2022-07-26T12:31:01.481Z,34.67
2022-07-26T12:32:12.747Z,34.89
2022-07-26T12:33:16.858Z,34.49
2022-07-26T12:34:22.242Z,34.23
2022-07-26T12:35:34.179Z,34.65
2022-07-26T12:36:43.418Z,35.29
2022-07-26T12:37:52.540Z,34.79
2022-07-26T12:39:01.550Z,35.03
2022-07-26T12:40:16.361Z,35.49
2022-07-26T12:41:36.113Z,35.53
2022-07-26T12:42:45.757Z,35.41
2022-07-26T12:43:52.754Z,35.05
2022-07-26T12:44:57.757Z,35.15
2022-07-26T12:46:04.387Z,35.15
2022-07-26T12:47:09.926Z,35.29
2022-07-26T12:48:12.809Z,34.54
2022-07-26T12:49:19.146Z,34.59
2022-07-26T12:50:28.093Z,34.33
2022-07-26T12:51:31.011Z,34.28
2022-07-26T12:52:38.382Z,34.80
2022-07-26T12:53:43.594Z,33.98
2022-07-26T12:54:52.164Z,34.43
2022-07-26T12:55:57.143Z,33.67
2022-07-26T12:56:59.822Z,34.01
2022-07-26T12:58:07.349Z,34.06
2022-07-26T12:59:17.691Z,34.49
2022-07-26T13:00:22.600Z,34.26
2022-07-26T13:01:25.864Z,33.11
2022-07-26T13:02:29.032Z,33.05
2022-07-26T13:03:32.393Z,32.92
2022-07-26T13:04:36.717Z,32.76
2022-07-26T13:05:41.033Z,32.65
2022-07-26T13:06:45.729Z,33.34
2022-07-26T13:08:02.531Z,33.23
2022-07-26T13:09:07.931Z,33.62
2022-07-26T13:11:21.113Z,32.17
2022-07-26T13:12:25.373Z,32.67
2022-07-26T13:13:29.471Z,33.21
2022-07-26T13:14:42.272Z,33.35
2022-07-26T13:15:48.768Z,34.10
2022-07-26T13:16:54.228Z,33.95
2022-07-26T13:17:58.622Z,33.95
2022-07-26T13:19:02.464Z,34.76
2022-07-26T13:20:10.764Z,34.69
2022-07-26T13:21:15.441Z,34.44
2022-07-26T13:22:18.912Z,34.71
2022-07-26T13:23:26.039Z,34.18
2022-07-26T13:24:31.830Z,33.94
2022-07-26T13:25:39.616Z,33.06
2022-07-26T13:26:43.174Z,32.71
2022-07-26T13:27:45.893Z,33.11
2022-07-26T13:28:50.168Z,33.79
2022-07-26T13:29:54.393Z,34.21
2022-07-26T13:31:01.063Z,35.31
2022-07-26T13:32:06.702Z,34.89
2022-07-26T13:33:16.957Z,35.07
2022-07-26T13:34:23.137Z,35.71
2022-07-26T13:35:28.551Z,35.85
2022-07-26T13:36:33.005Z,36.04
2022-07-26T13:37:37.548Z,36.35
2022-07-26T13:38:43.247Z,36.42
2022-07-26T13:39:48.605Z,36.38
2022-07-26T13:40:53.722Z,36.23
2022-07-26T13:41:58.159Z,36.56
2022-07-26T13:43:02.080Z,36.40
2022-07-26T13:44:10.862Z,36.34
2022-07-26T13:45:15.513Z,36.33
2022-07-26T13:46:21.649Z,36.22
2022-07-26T13:47:24.454Z,36.28
2022-07-26T13:48:28.518Z,36.34
2022-07-26T13:49:31.543Z,36.20
2022-07-26T13:50:37.621Z,36.16
2022-07-26T13:52:01.150Z,36.06
2022-07-26T13:53:05.260Z,35.80
2022-07-26T13:54:10.119Z,35.48
2022-07-26T13:55:15.137Z,35.85
2022-07-26T13:56:20.494Z,35.27
2022-07-26T13:57:24.689Z,35.22
2022-07-26T13:58:32.330Z,35.33
2022-07-26T13:59:36.008Z,35.58
2022-07-26T14:00:42.854Z,35.24
2022-07-26T14:01:46.302Z,35.48
2022-07-26T14:02:51.156Z,34.76
2022-07-26T14:03:55.746Z,35.04
2022-07-26T14:04:59.473Z,35.16
2022-07-26T14:06:04.613Z,35.55
2022-07-26T14:07:09.632Z,34.84
2022-07-26T14:08:17.103Z,35.02
2022-07-26T14:09:21.966Z,34.64
2022-07-26T14:10:28.380Z,34.50
2022-07-26T14:11:34.382Z,34.47
2022-07-26T14:12:38.709Z,34.22
2022-07-26T14:13:46.298Z,33.43
2022-07-26T14:14:51.925Z,33.32
2022-07-26T14:15:58.892Z,33.32
2022-07-26T14:17:02.829Z,33.58
2022-07-26T14:18:06.718Z,33.99
2022-07-26T14:19:10.616Z,33.23
2022-07-26T14:20:17.790Z,33.46
2022-07-26T14:21:24.202Z,33.47
2022-07-26T14:22:31.318Z,33.85
2022-07-26T14:23:34.337Z,33.13
2022-07-26T14:24:39.128Z,32.38
2022-07-26T14:25:45.696Z,32.40
2022-07-26T14:26:53.119Z,32.58
2022-07-26T14:27:55.545Z,32.55
2022-07-26T14:28:59.020Z,32.36
2022-07-26T14:30:06.103Z,32.25
2022-07-26T14:31:10.247Z,32.29
2022-07-26T14:32:18.017Z,32.31
2022-07-26T14:33:19.818Z,32.78
2022-07-26T14:34:23.398Z,33.67
2022-07-26T14:35:36.616Z,33.14
2022-07-26T14:36:42.102Z,34.34
2022-07-26T14:37:46.130Z,35.17
2022-07-26T14:38:51.854Z,34.85
2022-07-26T14:39:56.834Z,34.72
2022-07-26T14:41:02.890Z,34.58
2022-07-26T14:42:08.313Z,34.82
2022-07-26T14:43:10.961Z,34.82
2022-07-26T14:44:18.202Z,35.48
2022-07-26T14:45:23.531Z,35.35
2022-07-26T14:46:30.623Z,35.22
2022-07-26T14:47:34.653Z,34.72
2022-07-26T14:48:54.126Z,34.71
2022-07-26T14:49:45.030Z,34.28
2022-07-26T14:51:08.543Z,34.73
2022-07-26T14:51:57.623Z,34.87
2022-07-26T14:53:06.696Z,35.32
2022-07-26T14:54:11.513Z,35.08
2022-07-26T14:55:20.354Z,34.25
2022-07-26T14:56:21.742Z,34.13
2022-07-26T14:57:26.454Z,35.23